Time;durP1;ratioP1;P1;durP2;ratioP2;P2;SDS_P1;SDS_P2;PMS_P1;PMS_P2;Temp;Humidity;BMP_temperature;BMP_pressure;BME280_temperature;BME280_humidity;BME280_pressure;Samples;Min_cycle;Max_cycle;Signal;HPM_P1;HPM_P2
2021/06/16 00:09:43;;;;;;;3.43;2.80;;;15.70;99.90;;;;;;21029631;28;20066;-79
2021/06/16 00:19:44;;;;;;;6.60;3.10;;;15.70;99.90;;;;;;20985305;28;20041;-79
2021/06/16 00:29:45;;;;;;;6.03;2.97;;;15.70;99.90;;;;;;20995466;28;20609;-79
2021/06/16 00:39:46;;;;;;;4.60;2.67;;;15.50;99.90;;;;;;20983967;28;20041;-79
2021/06/16 00:49:47;;;;;;;7.73;2.90;;;15.30;99.90;;;;;;20989213;28;20047;-79
2021/06/16 01:00:00;;;;;;;4.70;2.43;;;15.40;99.90;;;;;;21002221;28;20499;-79
2021/06/16 01:10:03;;;;;;;5.18;2.50;;;15.10;99.90;;;;;;21016994;28;20090;-79
2021/06/16 01:20:27;;;;;;;9.25;3.30;;;15.20;99.90;;;;;;20967187;28;20073;-79
2021/06/16 01:30:31;;;;;;;4.05;2.60;;;15.30;99.90;;;;;;20969308;28;20051;-79
2021/06/16 01:40:33;;;;;;;5.25;2.75;;;15.00;99.90;;;;;;20972776;28;20048;-79
2021/06/16 01:50:36;;;;;;;9.32;3.30;;;14.80;99.90;;;;;;20975915;28;20553;-77
2021/06/16 02:00:39;;;;;;;5.95;2.92;;;14.70;99.90;;;;;;20933902;28;20037;-79
2021/06/16 02:10:45;;;;;;;5.97;2.95;;;14.90;99.90;;;;;;20946476;28;20097;-79
2021/06/16 02:20:46;;;;;;;5.95;3.20;;;14.80;99.90;;;;;;20959438;28;20045;-78
2021/06/16 02:30:47;;;;;;;8.17;3.23;;;14.60;99.90;;;;;;20972568;28;20051;-79
2021/06/16 02:40:48;;;;;;;6.10;3.30;;;14.40;99.90;;;;;;20955783;28;20040;-79
2021/06/16 02:50:51;;;;;;;7.10;3.72;;;14.30;99.90;;;;;;20953529;28;20062;-79
2021/06/16 03:00:56;;;;;;;7.45;3.80;;;14.30;99.90;;;;;;20978988;28;20041;-78
2021/06/16 03:10:59;;;;;;;10.38;3.95;;;14.10;99.90;;;;;;21038819;28;20121;-78
2021/06/16 03:21:01;;;;;;;5.38;3.35;;;14.00;99.90;;;;;;21036039;28;20067;-79
2021/06/16 03:31:02;;;;;;;10.87;3.30;;;13.90;99.90;;;;;;21052981;28;20125;-79
2021/06/16 03:41:03;;;;;;;6.38;3.83;;;14.00;99.90;;;;;;21034552;28;20067;-79
2021/06/16 03:51:05;;;;;;;5.00;3.27;;;13.90;99.90;;;;;;21040580;28;20071;-79
2021/06/16 04:01:09;;;;;;;;;;;13.70;99.90;;;;;;21056774;28;20482;-79
2021/06/16 04:11:12;;;;;;;8.98;3.20;;;14.10;99.90;;;;;;21038696;28;19935;-79
2021/06/16 04:21:13;;;;;;;5.50;2.97;;;14.40;99.90;;;;;;21003237;28;20040;-76
2021/06/16 04:31:15;;;;;;;7.57;4.27;;;14.60;99.90;;;;;;20993830;28;20123;-76
2021/06/16 04:41:15;;;;;;;5.50;3.53;;;15.30;99.90;;;;;;20999959;28;20037;-78
2021/06/16 04:51:16;;;;;;;12.77;4.10;;;15.70;99.90;;;;;;20998728;28;20039;-78
2021/06/16 05:01:17;;;;;;;9.07;3.33;;;16.10;99.90;;;;;;20983547;28;20131;-78
2021/06/16 05:11:18;;;;;;;8.50;3.45;;;16.70;99.90;;;;;;21009904;28;20056;-80
2021/06/16 05:21:19;;;;;;;6.50;3.83;;;17.10;99.90;;;;;;20996569;28;20056;-79
2021/06/16 05:31:21;;;;;;;5.97;3.97;;;17.30;99.90;;;;;;20974873;28;20041;-79
2021/06/16 05:41:22;;;;;;;12.17;4.33;;;17.50;99.90;;;;;;20946750;28;20120;-80
2021/06/16 05:51:23;;;;;;;10.17;4.33;;;17.80;99.90;;;;;;20937888;28;20573;-77
2021/06/16 06:01:23;;;;;;;5.47;3.83;;;17.90;99.90;;;;;;20955505;28;20125;-77
2021/06/16 06:11:24;;;;;;;5.50;3.80;;;18.40;99.90;;;;;;20938137;28;20091;-77
2021/06/16 06:21:31;;;;;;;5.20;3.57;;;19.00;99.90;;;;;;20987443;28;20040;-77
2021/06/16 06:31:32;;;;;;;8.75;3.65;;;19.50;99.90;;;;;;20984706;28;20155;-76
2021/06/16 06:41:33;;;;;;;7.17;3.47;;;20.00;99.90;;;;;;21009262;28;20124;-77
2021/06/16 06:51:34;;;;;;;5.33;3.50;;;20.40;99.90;;;;;;20951076;28;20302;-77
2021/06/16 07:01:34;;;;;;;7.33;3.27;;;20.90;99.90;;;;;;20934344;28;20063;-77
2021/06/16 07:11:35;;;;;;;5.13;3.33;;;21.50;99.90;;;;;;20983249;28;20032;-78
2021/06/16 07:21:36;;;;;;;10.73;3.27;;;22.10;99.90;;;;;;20948685;28;20676;-79
2021/06/16 07:31:37;;;;;;;5.90;3.37;;;22.90;99.90;;;;;;20946860;28;20037;-78
2021/06/16 07:41:38;;;;;;;4.20;2.80;;;23.10;99.90;;;;;;20951236;28;20041;-79
2021/06/16 07:51:39;;;;;;;3.73;2.70;;;23.80;99.90;;;;;;21013125;28;20055;-80
2021/06/16 08:01:42;;;;;;;6.70;2.80;;;24.10;99.90;;;;;;20976695;28;20099;-78
2021/06/16 08:11:43;;;;;;;4.13;2.70;;;24.90;99.90;;;;;;20939628;28;20541;-79
2021/06/16 08:21:44;;;;;;;5.20;2.67;;;24.70;99.90;;;;;;20956278;28;20112;-78
2021/06/16 08:31:45;;;;;;;;;;;26.00;99.90;;;;;;20966957;28;20040;-80
2021/06/16 08:41:46;;;;;;;6.82;2.35;;;26.60;99.90;;;;;;21009151;28;19908;-81
2021/06/16 08:51:47;;;;;;;5.60;2.42;;;26.70;99.90;;;;;;21013531;28;20068;-81
2021/06/16 09:01:48;;;;;;;;;;;27.00;99.90;;;;;;21025690;28;20103;-81
2021/06/16 09:11:49;;;;;;;4.50;2.27;;;27.50;99.90;;;;;;21027905;28;19912;-81
2021/06/16 09:22:04;;;;;;;4.60;2.30;;;27.90;99.90;;;;;;21012473;28;20036;-81
2021/06/16 09:32:06;;;;;;;3.45;2.00;;;28.20;99.90;;;;;;21034200;28;20036;-81
2021/06/16 09:42:14;;;;;;;5.78;2.35;;;29.10;99.90;;;;;;21005022;28;20039;-80
2021/06/16 09:52:38;;;;;;;4.50;1.92;;;29.90;99.90;;;;;;21005541;22;20045;-78
2021/06/16 10:02:41;;;;;;;5.22;2.33;;;30.50;99.90;;;;;;21042814;28;20036;-79
2021/06/16 10:12:47;;;;;;;5.15;1.88;;;31.00;99.90;;;;;;21029474;28;20049;-78
2021/06/16 10:22:49;;;;;;;2.97;2.00;;;31.00;99.90;;;;;;21018566;28;20102;-81
2021/06/16 10:32:50;;;;;;;4.10;2.05;;;31.50;99.90;;;;;;21035063;28;20131;-80
2021/06/16 10:43:06;;;;;;;6.93;2.30;;;31.40;99.90;;;;;;21056633;28;20139;-80
2021/06/16 10:53:07;;;;;;;4.90;1.85;;;32.10;99.90;;;;;;21061914;28;20127;-80
2021/06/16 11:03:08;;;;;;;3.28;2.15;;;31.60;99.90;;;;;;21057776;28;20037;-79
2021/06/16 11:13:29;;;;;;;2.42;1.88;;;33.40;99.90;;;;;;21044818;28;20104;-79
2021/06/16 11:23:31;;;;;;;8.13;1.73;;;32.90;96.00;;;;;;21031471;28;20415;-77
2021/06/16 11:33:35;;;;;;;8.25;2.10;;;33.30;97.60;;;;;;21038856;28;20036;-81
2021/06/16 11:43:40;;;;;;;4.32;1.70;;;33.40;96.90;;;;;;21030188;28;20048;-78
2021/06/16 11:53:41;;;;;;;1.75;1.60;;;32.40;96.50;;;;;;20936068;28;20056;-76
2021/06/16 12:03:44;;;;;;;2.37;1.70;;;32.90;97.80;;;;;;20981082;28;20044;-77
2021/06/16 12:14:02;;;;;;;4.80;1.98;;;33.90;91.80;;;;;;21013940;28;20757;-78
2021/06/16 12:24:18;;;;;;;7.53;1.73;;;34.50;86.50;;;;;;20979366;28;20087;-77
2021/06/16 12:44:41;;;;;;;2.70;1.50;;;33.70;90.50;;;;;;20933674;28;20503;-77
2021/06/16 12:54:46;;;;;;;2.60;0.95;;;34.80;78.70;;;;;;20928280;28;20458;-75
2021/06/16 13:05:13;;;;;;;1.92;1.52;;;34.30;84.50;;;;;;20926784;28;20408;-77
2021/06/16 13:15:14;;;;;;;3.63;1.10;;;34.60;72.30;;;;;;20966253;28;20040;-77
2021/06/16 13:25:31;;;;;;;1.00;0.57;;;35.10;76.30;;;;;;21007754;28;20036;-76
2021/06/16 13:35:32;;;;;;;1.40;0.93;;;34.30;69.10;;;;;;21001001;28;20101;-76
2021/06/16 13:45:33;;;;;;;4.53;1.10;;;34.10;69.70;;;;;;21009465;28;20045;-77
2021/06/16 13:55:34;;;;;;;2.03;1.25;;;33.20;68.10;;;;;;20964119;28;20140;-77
2021/06/16 14:05:36;;;;;;;2.67;1.10;;;34.20;67.90;;;;;;21007171;28;20041;-76
2021/06/16 14:15:37;;;;;;;2.08;1.10;;;34.80;66.50;;;;;;21003065;28;20040;-79
2021/06/16 14:25:39;;;;;;;2.22;1.30;;;34.20;66.00;;;;;;21009614;28;20045;-77
2021/06/16 14:35:40;;;;;;;6.40;1.38;;;34.10;69.70;;;;;;21010244;28;20040;-78
2021/06/16 14:45:40;;;;;;;4.05;1.10;;;34.10;69.10;;;;;;21028672;28;20100;-77
2021/06/16 14:55:41;;;;;;;1.75;1.40;;;33.90;71.50;;;;;;21033580;28;20049;-78
2021/06/16 15:05:42;;;;;;;2.65;1.20;;;33.50;68.40;;;;;;20968179;28;20033;-79
2021/06/16 15:15:44;;;;;;;1.55;1.15;;;33.60;72.20;;;;;;20936461;28;20119;-78
2021/06/16 15:25:45;;;;;;;4.30;2.03;;;33.20;71.10;;;;;;20968441;28;20033;-78
2021/06/16 15:35:46;;;;;;;2.75;1.52;;;33.10;72.30;;;;;;20972195;28;20102;-78
2021/06/16 15:45:46;;;;;;;4.75;1.70;;;32.60;70.50;;;;;;20983176;28;20049;-77
2021/06/16 15:55:48;;;;;;;2.40;1.27;;;32.70;70.70;;;;;;20985843;23;20353;-83
2021/06/16 16:05:49;;;;;;;4.03;1.42;;;32.10;70.70;;;;;;21003972;28;20501;-82
2021/06/16 16:15:50;;;;;;;4.68;1.58;;;32.20;71.30;;;;;;21005999;28;20401;-82
2021/06/16 16:25:51;;;;;;;4.38;1.73;;;31.90;73.20;;;;;;20956545;28;20045;-83
2021/06/16 16:35:53;;;;;;;4.80;2.13;;;31.80;69.80;;;;;;20943487;28;20037;-84
2021/06/16 16:45:54;;;;;;;2.22;1.42;;;31.50;76.20;;;;;;20969507;28;20480;-81
2021/06/16 16:55:55;;;;;;;8.00;1.48;;;31.30;74.40;;;;;;20899030;28;20461;-83
2021/06/16 17:05:55;;;;;;;5.95;1.90;;;31.40;71.90;;;;;;20936979;28;20048;-83
2021/06/16 17:15:56;;;;;;;3.70;1.55;;;31.30;75.70;;;;;;20905118;28;20066;-82
2021/06/16 17:25:58;;;;;;;7.95;1.65;;;31.20;77.40;;;;;;20901569;28;20041;-84
2021/06/16 17:35:59;;;;;;;3.50;1.30;;;31.20;75.30;;;;;;20884545;28;20041;-84
2021/06/16 17:46:00;;;;;;;2.78;1.33;;;31.10;77.00;;;;;;20903219;28;20044;-86
2021/06/16 17:56:01;;;;;;;1.80;1.45;;;31.20;76.80;;;;;;20986733;28;20120;-83
2021/06/16 18:06:02;;;;;;;9.50;2.00;;;32.00;75.60;;;;;;20951186;28;20045;-83
2021/06/16 18:16:07;;;;;;;9.88;1.55;;;32.90;82.00;;;;;;20902793;28;20101;-83
2021/06/16 18:26:08;;;;;;;3.90;1.67;;;32.90;82.30;;;;;;20967601;28;20629;-84
2021/06/16 18:36:09;;;;;;;3.88;1.73;;;32.20;95.20;;;;;;20983590;28;20211;-83
2021/06/16 18:46:10;;;;;;;3.55;2.13;;;30.50;98.20;;;;;;20977648;28;20044;-83
2021/06/16 18:56:11;;;;;;;3.97;1.90;;;29.00;91.30;;;;;;20980985;28;20535;-83
2021/06/16 19:06:13;;;;;;;3.63;1.73;;;28.20;93.30;;;;;;20994820;28;20041;-82
2021/06/16 19:16:14;;;;;;;4.95;2.15;;;27.40;94.30;;;;;;20959574;28;20040;-82
2021/06/16 19:26:14;;;;;;;;;;;26.60;96.60;;;;;;20976330;28;20412;-83
2021/06/16 19:36:15;;;;;;;2.78;2.22;;;25.90;98.20;;;;;;20926780;28;19981;-82
2021/06/16 19:46:17;;;;;;;3.22;2.17;;;25.60;97.30;;;;;;20906887;28;20041;-84
2021/06/16 19:56:18;;;;;;;9.55;2.97;;;25.70;97.50;;;;;;20921584;28;20051;-82
2021/06/16 20:06:21;;;;;;;7.33;2.60;;;23.80;99.90;;;;;;20906665;28;20044;-84
2021/06/16 20:16:25;;;;;;;6.40;3.13;;;23.10;99.90;;;;;;21016679;28;20278;-84
2021/06/16 20:26:27;;;;;;;6.00;2.80;;;23.50;99.90;;;;;;20945179;28;20082;-84
2021/06/16 20:36:31;;;;;;;6.38;2.72;;;23.20;99.90;;;;;;20985056;28;20048;-83
2021/06/16 20:46:32;;;;;;;3.30;2.50;;;23.10;99.90;;;;;;20974973;28;20043;-84
2021/06/16 20:56:33;;;;;;;3.90;2.97;;;22.40;99.90;;;;;;20950949;28;20094;-84
2021/06/16 21:06:34;;;;;;;3.47;2.50;;;22.00;99.90;;;;;;20917303;28;20286;-85
2021/06/16 21:16:34;;;;;;;5.50;2.97;;;21.60;99.90;;;;;;20917854;28;20060;-85
2021/06/16 21:26:36;;;;;;;3.80;3.00;;;21.10;99.90;;;;;;20948099;28;20156;-83
2021/06/16 21:36:37;;;;;;;;;;;20.90;99.90;;;;;;20884817;28;20065;-83
2021/06/16 21:46:38;;;;;;;8.52;3.20;;;21.00;99.90;;;;;;20888150;28;19916;-84
2021/06/16 21:56:39;;;;;;;4.63;3.00;;;20.90;99.90;;;;;;20942221;23;20053;-76
2021/06/16 22:06:40;;;;;;;6.40;3.10;;;21.20;99.90;;;;;;20988492;28;20079;-76
2021/06/16 22:16:44;;;;;;;13.90;2.60;;;21.70;99.90;;;;;;20988378;28;20036;-76
2021/06/16 22:26:45;;;;;;;4.60;2.72;;;21.70;99.90;;;;;;21003245;28;20171;-76
2021/06/16 22:36:46;;;;;;;10.70;3.53;;;21.60;99.90;;;;;;21002232;28;20064;-76
2021/06/16 22:46:47;;;;;;;4.10;3.13;;;21.60;99.90;;;;;;21001755;28;20126;-76
2021/06/16 22:56:48;;;;;;;3.40;2.70;;;21.40;99.90;;;;;;21039075;28;20450;-76
2021/06/16 23:06:49;;;;;;;5.80;2.90;;;21.40;99.90;;;;;;21096170;28;20048;-76
2021/06/16 23:16:50;;;;;;;4.90;3.30;;;21.30;99.90;;;;;;21065107;28;20043;-76
2021/06/16 23:26:51;;;;;;;4.40;2.97;;;21.20;99.90;;;;;;21063855;28;20515;-76
2021/06/16 23:36:51;;;;;;;6.23;2.80;;;21.00;99.90;;;;;;21073281;28;20050;-76
2021/06/16 23:46:52;;;;;;;7.73;3.00;;;20.70;99.90;;;;;;21084146;28;20042;-76
2021/06/16 23:56:53;;;;;;;7.73;3.33;;;20.50;99.90;;;;;;21081927;28;20582;-77
